createdAt,value
2022-09-20T00:01:33.821Z,97452.05
2022-09-20T00:04:05.703Z,97450.91
2022-09-20T00:06:35.086Z,97457.13
2022-09-20T00:09:04.874Z,97457.14
2022-09-20T00:11:34.975Z,97457.88
2022-09-20T00:14:06.236Z,97455.64
2022-09-20T00:16:38.239Z,97456.34
2022-09-20T00:19:07.649Z,97458.05
2022-09-20T00:21:37.700Z,97454.90
2022-09-20T00:24:06.235Z,97456.27
2022-09-20T00:26:34.294Z,97455.07
2022-09-20T00:29:02.751Z,97455.08
2022-09-20T00:31:30.980Z,97457.69
2022-09-20T00:34:17.854Z,97455.92
2022-09-20T00:36:46.225Z,97459.91
2022-09-20T00:39:15.764Z,97460.93
2022-09-20T00:41:43.990Z,97457.48
2022-09-20T00:44:49.088Z,97454.02
2022-09-20T00:47:22.463Z,97456.49
2022-09-20T00:49:53.437Z,97460.89
2022-09-20T00:52:21.936Z,97457.42
2022-09-20T00:54:50.223Z,97453.63
2022-09-20T00:57:18.700Z,97452.09
2022-09-20T00:59:49.210Z,97447.56
2022-09-20T01:02:23.386Z,97449.46
2022-09-20T01:04:51.935Z,97446.10
2022-09-20T01:07:25.186Z,97445.38
2022-09-20T01:09:53.659Z,97442.19
2022-09-20T01:12:26.121Z,97437.45
2022-09-20T01:14:55.547Z,97439.01
2022-09-20T01:17:27.239Z,97437.45
2022-09-20T01:20:28.246Z,97436.55
2022-09-20T01:23:16.544Z,97434.94
2022-09-20T01:25:53.855Z,97432.10
2022-09-20T01:28:22.616Z,97426.64
2022-09-20T01:31:07.037Z,97424.52
2022-09-20T01:34:13.199Z,97422.63
2022-09-20T01:36:49.050Z,97423.40
2022-09-20T01:39:22.553Z,97423.10
2022-09-20T01:41:53.853Z,97430.79
2022-09-20T01:44:36.035Z,97427.17
2022-09-20T01:47:12.856Z,97423.89
2022-09-20T01:49:57.421Z,97422.34
2022-09-20T01:52:34.808Z,97427.55
2022-09-20T01:55:14.830Z,97426.51
2022-09-20T01:58:10.017Z,97426.54
2022-09-20T02:00:56.435Z,97428.27
2022-09-20T02:03:42.494Z,97430.60
2022-09-20T02:06:31.934Z,97428.02
2022-09-20T02:09:24.636Z,97432.39
2022-09-20T02:12:06.950Z,97431.36
2022-09-20T02:14:51.014Z,97438.67
2022-09-20T02:17:31.460Z,97443.73
2022-09-20T02:20:40.308Z,97445.34
2022-09-20T02:23:17.418Z,97444.05
2022-09-20T02:25:58.730Z,97444.81
2022-09-20T02:28:32.476Z,97446.46
2022-09-20T02:31:19.081Z,97446.89
2022-09-20T02:34:08.749Z,97449.02
2022-09-20T02:36:55.183Z,97454.85
2022-09-20T02:39:45.498Z,97454.73
2022-09-20T02:42:23.845Z,97453.95
2022-09-20T02:45:04.385Z,97454.16
2022-09-20T02:47:40.669Z,97452.13
2022-09-20T02:50:38.647Z,97451.49
2022-09-20T02:53:23.008Z,97448.08
2022-09-20T02:55:53.947Z,97452.13
2022-09-20T02:58:22.089Z,97453.21
2022-09-20T03:01:06.938Z,97452.38
2022-09-20T03:03:46.991Z,97452.21
2022-09-20T03:06:40.086Z,97454.31
2022-09-20T03:09:41.155Z,97462.16
2022-09-20T03:12:22.120Z,97463.55
2022-09-20T03:15:18.232Z,97464.75
2022-09-20T03:17:53.639Z,97463.88
2022-09-20T03:20:21.413Z,97463.02
2022-09-20T03:22:54.989Z,97459.70
2022-09-20T03:25:52.010Z,97460.73
2022-09-20T03:28:37.430Z,97457.80
2022-09-20T03:31:23.608Z,97459.23
2022-09-20T03:34:06.020Z,97459.66
2022-09-20T03:37:04.819Z,97463.56
2022-09-20T03:39:51.345Z,97464.48
2022-09-20T03:42:24.742Z,97464.38
2022-09-20T03:45:05.737Z,97465.13
2022-09-20T03:47:55.276Z,97467.73
2022-09-20T03:50:38.653Z,97470.54
2022-09-20T03:53:40.909Z,97471.24
2022-09-20T03:56:39.798Z,97475.42
2022-09-20T03:59:18.614Z,97479.06
2022-09-20T04:02:21.027Z,97478.36
2022-09-20T04:05:07.700Z,97481.46
2022-09-20T04:08:06.648Z,97485.63
2022-09-20T04:11:08.369Z,97490.48
2022-09-20T04:13:39.910Z,97492.73
2022-09-20T04:16:46.406Z,97496.02
2022-09-20T04:19:42.274Z,97500.17
2022-09-20T04:22:10.461Z,97501.73
2022-09-20T04:24:43.306Z,97503.10
2022-09-20T04:27:36.240Z,97506.55
2022-09-20T04:30:11.798Z,97507.92
2022-09-20T04:32:46.871Z,97506.67
2022-09-20T04:36:01.230Z,97508.71
2022-09-20T04:38:30.519Z,97509.39
2022-09-20T04:41:23.347Z,97506.46
2022-09-20T04:44:07.326Z,97507.87
2022-09-20T04:47:00.266Z,97510.64
2022-09-20T04:50:07.886Z,97511.16
2022-09-20T04:53:14.965Z,97511.64
2022-09-20T04:55:52.321Z,97507.78
2022-09-20T04:58:38.821Z,97513.27
2022-09-20T05:01:19.688Z,97517.89
2022-09-20T05:04:19.006Z,97521.09
2022-09-20T05:06:46.881Z,97525.23
2022-09-20T05:09:40.601Z,97529.84
2022-09-20T05:12:37.499Z,97529.64
2022-09-20T05:15:34.811Z,97527.98
2022-09-20T05:18:40.387Z,97524.86
2022-09-20T05:21:26.989Z,97520.55
2022-09-20T05:24:19.286Z,97518.88
2022-09-20T05:26:50.212Z,97520.84
2022-09-20T05:29:38.579Z,97527.05
2022-09-20T05:32:18.531Z,97523.76
2022-09-20T05:35:15.654Z,97521.42
2022-09-20T05:38:22.951Z,97521.33
2022-09-20T05:41:19.057Z,97519.63
2022-09-20T05:43:53.384Z,97522.63
2022-09-20T05:46:31.311Z,97521.27
2022-09-20T05:49:18.240Z,97523.22
2022-09-20T05:51:58.881Z,97520.13
2022-09-20T05:54:39.462Z,97521.23
2022-09-20T05:57:35.661Z,97515.13
2022-09-20T06:00:03.726Z,97516.12
2022-09-20T06:03:00.741Z,97517.23
2022-09-20T06:05:47.233Z,97523.28
2022-09-20T06:08:27.491Z,97521.41
2022-09-20T06:11:18.621Z,97522.85
2022-09-20T06:14:27.814Z,97520.45
2022-09-20T06:17:28.114Z,97522.13
2022-09-20T06:20:17.930Z,97519.48
2022-09-20T06:22:54.694Z,97516.45
2022-09-20T06:25:44.232Z,97519.39
2022-09-20T06:28:20.298Z,97519.02
2022-09-20T06:30:49.830Z,97514.91
2022-09-20T06:33:21.085Z,97519.38
2022-09-20T06:36:26.249Z,97517.96
2022-09-20T06:39:33.007Z,97519.37
2022-09-20T06:42:01.678Z,97521.52
2022-09-20T06:44:31.348Z,97518.40
2022-09-20T06:46:59.903Z,97511.30
2022-09-20T06:49:29.264Z,97509.19
2022-09-20T06:51:57.656Z,97508.16
2022-09-20T06:54:27.254Z,97513.45
2022-09-20T06:56:55.431Z,97517.23
2022-09-20T06:59:24.161Z,97516.14
2022-09-20T07:01:52.484Z,97516.04
2022-09-20T07:04:22.328Z,97516.30
2022-09-20T07:06:51.024Z,97512.91
2022-09-20T07:09:19.373Z,97515.65
2022-09-20T07:11:47.392Z,97513.89
2022-09-20T07:14:16.295Z,97517.45
2022-09-20T07:16:44.611Z,97515.18
2022-09-20T07:19:12.746Z,97513.23
2022-09-20T07:21:40.967Z,97505.40
2022-09-20T07:24:08.918Z,97507.15
2022-09-20T07:26:39.025Z,97514.09
2022-09-20T07:29:07.956Z,97518.02
2022-09-20T07:31:35.939Z,97517.34
2022-09-20T07:34:04.111Z,97520.23
2022-09-20T07:36:32.085Z,97517.70
2022-09-20T07:39:00.237Z,97515.57
2022-09-20T07:41:30.652Z,97516.83
2022-09-20T07:44:18.821Z,97517.70
2022-09-20T07:46:49.062Z,97518.64
2022-09-20T07:49:17.641Z,97516.42
2022-09-20T07:51:45.968Z,97512.78
2022-09-20T07:54:14.514Z,97509.64
2022-09-20T07:56:43.575Z,97504.84
2022-09-20T07:59:13.433Z,97502.69
2022-09-20T08:01:42.715Z,97505.67
2022-09-20T08:04:11.637Z,97501.96
2022-09-20T08:06:42.468Z,97504.40
2022-09-20T08:09:13.591Z,97501.16
2022-09-20T08:11:43.699Z,97499.55
2022-09-20T08:14:16.947Z,97499.20
2022-09-20T08:16:47.729Z,97500.09
2022-09-20T08:19:18.519Z,97500.79
2022-09-20T08:21:47.169Z,97498.73
2022-09-20T08:24:16.569Z,97499.29
2022-09-20T08:26:45.407Z,97498.98
2022-09-20T08:29:15.343Z,97501.75
2022-09-20T08:31:43.900Z,97498.20
2022-09-20T08:34:15.227Z,97498.10
2022-09-20T08:36:46.952Z,97498.58
2022-09-20T08:42:14.405Z,97495.17
2022-09-20T08:45:00.496Z,97491.70
2022-09-20T08:47:36.866Z,97484.19
2022-09-20T08:50:09.989Z,97480.78
2022-09-20T08:52:40.916Z,97480.17
2022-09-20T08:55:39.668Z,97477.33
2022-09-20T08:58:10.898Z,97478.27
2022-09-20T09:00:40.501Z,97478.73
2022-09-20T09:03:19.477Z,97476.15
2022-09-20T09:05:55.258Z,97472.70
2022-09-20T09:08:37.629Z,97469.18
2022-09-20T09:11:13.163Z,97466.64
2022-09-20T09:14:01.683Z,97469.74
2022-09-20T09:16:35.365Z,97471.02
2022-09-20T09:19:34.670Z,97472.33
2022-09-20T09:22:05.876Z,97467.83
2022-09-20T09:24:34.070Z,97463.16
2022-09-20T09:27:16.467Z,97458.88
2022-09-20T09:29:53.163Z,97461.55
2022-09-20T09:32:32.761Z,97466.41
2022-09-20T09:35:30.148Z,97469.15
2022-09-20T09:38:01.768Z,97474.79
2022-09-20T09:40:32.542Z,97484.52
2022-09-20T09:43:02.924Z,97499.67
2022-09-20T09:45:41.009Z,97498.05
2022-09-20T09:48:18.238Z,97482.60
2022-09-20T09:50:47.813Z,97483.92
2022-09-20T09:53:20.530Z,97490.85
2022-09-20T09:56:14.336Z,97494.52
2022-09-20T09:59:01.074Z,97491.17
2022-09-20T10:01:44.252Z,97492.31
2022-09-20T10:04:37.192Z,97490.97
2022-09-20T10:07:13.307Z,97489.36
2022-09-20T10:09:55.073Z,97484.11
2022-09-20T10:12:36.576Z,97483.15
2022-09-20T10:15:27.070Z,97486.58
2022-09-20T10:18:23.188Z,97484.88
2022-09-20T10:21:25.669Z,97488.94
2022-09-20T10:24:04.887Z,97490.08
2022-09-20T10:27:00.550Z,97491.79
2022-09-20T10:29:34.651Z,97489.98
2022-09-20T10:32:21.824Z,97492.52
2022-09-20T10:34:52.944Z,97496.16
2022-09-20T10:37:49.234Z,97500.77
2022-09-20T10:40:20.706Z,97502.18
2022-09-20T10:43:17.219Z,97508.73
2022-09-20T10:46:20.917Z,97509.88
2022-09-20T10:48:58.199Z,97508.61
2022-09-20T10:51:47.268Z,97507.95
2022-09-20T10:54:38.292Z,97503.14
2022-09-20T10:57:46.842Z,97494.94
2022-09-20T11:00:53.126Z,97500.52
2022-09-20T11:03:27.440Z,97503.00
2022-09-20T11:06:26.465Z,97505.20
2022-09-20T11:08:59.482Z,97500.34
2022-09-20T11:11:51.491Z,97501.06
2022-09-20T11:14:32.415Z,97501.77
2022-09-20T11:17:22.649Z,97504.64
2022-09-20T11:20:07.892Z,97507.58
2022-09-20T11:23:19.067Z,97502.38
2022-09-20T11:25:55.395Z,97496.68
2022-09-20T11:28:47.328Z,97496.91
2022-09-20T11:31:31.237Z,97495.73
2022-09-20T11:34:03.438Z,97495.29
2022-09-20T11:36:43.005Z,97491.63
2022-09-20T11:39:51.159Z,97490.36
2022-09-20T11:42:24.586Z,97487.20
2022-09-20T11:44:55.069Z,97484.77
2022-09-20T11:47:54.507Z,97481.56
2022-09-20T11:51:05.351Z,97481.26
2022-09-20T11:53:41.197Z,97488.27
2022-09-20T11:56:34.047Z,97489.48
2022-09-20T11:59:05.291Z,97488.41
2022-09-20T12:01:43.288Z,97486.84
2022-09-20T12:04:39.046Z,97488.48
2022-09-20T12:07:24.867Z,97489.02
2022-09-20T12:10:00.774Z,97489.20
2022-09-20T12:12:46.811Z,97482.48
2022-09-20T12:15:32.407Z,97487.64
2022-09-20T12:18:00.852Z,97487.42
2022-09-20T12:20:35.635Z,97489.98
2022-09-20T12:23:40.942Z,97492.58
2022-09-20T12:26:21.146Z,97495.46
2022-09-20T12:29:24.507Z,97499.73
2022-09-20T12:32:00.358Z,97494.89
2022-09-20T12:34:35.387Z,97494.02
2022-09-20T12:37:04.953Z,97493.09
2022-09-20T12:39:39.518Z,97489.01
2022-09-20T12:42:10.617Z,97491.83
2022-09-20T12:45:03.478Z,97492.19
2022-09-20T12:47:37.756Z,97494.83
2022-09-20T12:50:34.087Z,97495.41
2022-09-20T12:53:04.780Z,97495.76
2022-09-20T12:56:09.542Z,97497.20
2022-09-20T12:58:55.602Z,97502.20
2022-09-20T13:01:23.716Z,97500.06
2022-09-20T13:03:51.964Z,97497.86
2022-09-20T13:06:20.097Z,97495.92
2022-09-20T13:09:00.428Z,97496.99
2022-09-20T13:12:02.190Z,97492.78
2022-09-20T13:14:33.011Z,97498.21
2022-09-20T13:17:07.720Z,97501.23
2022-09-20T13:19:42.166Z,97504.08
2022-09-20T13:22:20.908Z,97509.19
2022-09-20T13:24:52.726Z,97508.32
2022-09-20T13:27:34.727Z,97511.52
2022-09-20T13:30:20.318Z,97512.69
2022-09-20T13:32:50.643Z,97506.77
2022-09-20T13:35:21.753Z,97508.00
2022-09-20T13:37:58.839Z,97509.21
2022-09-20T13:40:43.946Z,97508.52
2022-09-20T13:43:24.583Z,97508.89
2022-09-20T13:45:57.021Z,97507.15
2022-09-20T13:48:27.583Z,97506.46
2022-09-20T13:50:58.814Z,97515.05
2022-09-20T13:53:45.810Z,97510.92
2022-09-20T13:56:26.387Z,97508.92
2022-09-20T13:58:59.068Z,97509.03
2022-09-20T14:01:34.777Z,97509.88
2022-09-20T14:04:02.944Z,97511.38
2022-09-20T14:06:32.135Z,97506.90
2022-09-20T14:09:07.094Z,97500.71
2022-09-20T14:11:39.519Z,97503.64
2022-09-20T14:14:12.669Z,97504.75
2022-09-20T14:16:48.331Z,97508.90
2022-09-20T14:19:20.481Z,97505.11
2022-09-20T14:21:50.360Z,97507.91
2022-09-20T14:24:33.265Z,97512.25
2022-09-20T14:27:01.544Z,97512.64
2022-09-20T14:29:41.798Z,97511.23
2022-09-20T14:32:25.331Z,97512.79
2022-09-20T14:34:56.594Z,97514.91
2022-09-20T14:37:28.922Z,97518.33
2022-09-20T14:40:00.116Z,97518.50
2022-09-20T14:42:36.280Z,97521.04
2022-09-20T14:45:05.578Z,97521.70
2022-09-20T14:47:54.979Z,97518.25
2022-09-20T14:50:35.108Z,97520.48
2022-09-20T14:53:07.236Z,97521.05
2022-09-20T14:55:37.933Z,97525.75
2022-09-20T14:58:15.338Z,97526.45
2022-09-20T15:01:06.062Z,97523.41
2022-09-20T15:03:40.580Z,97523.74
2022-09-20T15:06:13.225Z,97528.98
2022-09-20T15:08:46.381Z,97534.61
2022-09-20T15:11:16.898Z,97535.43
2022-09-20T15:13:45.810Z,97533.08
2022-09-20T15:16:21.716Z,97531.08
2022-09-20T15:18:49.764Z,97532.48
2022-09-20T15:21:17.829Z,97533.16
2022-09-20T15:23:45.841Z,97532.80
2022-09-20T15:26:15.211Z,97532.72
2022-09-20T15:28:43.135Z,97533.88
2022-09-20T15:31:11.373Z,97535.35
2022-09-20T15:33:39.383Z,97539.62
2022-09-20T15:36:08.392Z,97541.11
2022-09-20T15:38:36.379Z,97542.58
2022-09-20T15:41:04.953Z,97543.67
2022-09-20T15:43:33.676Z,97543.13
2022-09-20T15:46:18.723Z,97544.92
2022-09-20T15:48:47.284Z,97547.88
2022-09-20T15:51:15.997Z,97548.41
2022-09-20T15:53:46.841Z,97550.02
2022-09-20T15:56:21.319Z,97549.81
2022-09-20T15:58:51.875Z,97554.52
2022-09-20T16:01:20.188Z,97556.99
2022-09-20T16:03:49.077Z,97555.67
2022-09-20T16:06:17.634Z,97552.06
2022-09-20T16:08:45.886Z,97551.94
2022-09-20T16:11:21.736Z,97552.84
2022-09-20T16:13:58.575Z,97555.81
2022-09-20T16:16:29.122Z,97555.49
2022-09-20T16:19:15.660Z,97555.33
2022-09-20T16:21:53.633Z,97557.55
2022-09-20T16:24:27.438Z,97560.46
2022-09-20T16:26:55.833Z,97562.52
2022-09-20T16:29:25.811Z,97563.63
2022-09-20T16:31:55.341Z,97566.25
2022-09-20T16:34:28.565Z,97569.46
2022-09-20T16:37:02.323Z,97571.44
2022-09-20T16:39:31.740Z,97566.30
2022-09-20T16:42:05.269Z,97573.08
2022-09-20T16:44:36.399Z,97575.52
2022-09-20T16:47:08.169Z,97577.79
2022-09-20T16:49:37.364Z,97578.84
2022-09-20T16:52:06.933Z,97582.03
2022-09-20T16:54:37.825Z,97582.44
2022-09-20T16:57:05.995Z,97584.96
2022-09-20T16:59:33.949Z,97583.12
2022-09-20T17:02:02.033Z,97589.95
2022-09-20T17:04:30.328Z,97590.98
2022-09-20T17:06:58.965Z,97592.65
2022-09-20T17:09:28.447Z,97595.67
2022-09-20T17:11:56.695Z,97594.83
2022-09-20T17:14:25.985Z,97595.56
2022-09-20T17:16:54.182Z,97596.66
2022-09-20T17:19:22.202Z,97599.48
2022-09-20T17:21:51.001Z,97604.95
2022-09-20T17:24:21.028Z,97602.61
2022-09-20T17:26:50.946Z,97604.70
2022-09-20T17:29:20.528Z,97608.20
2022-09-20T17:31:55.158Z,97607.89
2022-09-20T17:34:25.175Z,97609.84
2022-09-20T17:36:55.117Z,97610.39
2022-09-20T17:39:24.055Z,97614.07
2022-09-20T17:41:52.014Z,97615.98
2022-09-20T17:44:19.904Z,97620.13
2022-09-20T17:46:50.414Z,97621.11
2022-09-20T17:49:21.074Z,97619.48
2022-09-20T17:51:54.716Z,97620.08
2022-09-20T17:54:24.671Z,97622.75
2022-09-20T17:56:56.140Z,97626.62
2022-09-20T17:59:25.056Z,97628.56
2022-09-20T18:01:54.746Z,97631.58
2022-09-20T18:04:25.249Z,97639.81
2022-09-20T18:06:54.390Z,97638.98
2022-09-20T18:09:25.452Z,97640.10
2022-09-20T18:11:55.456Z,97642.96
2022-09-20T18:14:27.714Z,97644.98
2022-09-20T18:17:01.135Z,97652.75
2022-09-20T18:19:33.602Z,97655.28
2022-09-20T18:22:02.920Z,97658.70
2022-09-20T18:24:31.150Z,97663.84
2022-09-20T18:27:01.141Z,97665.83
2022-09-20T18:29:31.790Z,97669.38
2022-09-20T18:32:00.945Z,97671.17
2022-09-20T18:34:32.251Z,97678.86
2022-09-20T18:37:01.406Z,97679.69
2022-09-20T18:39:35.074Z,97680.02
2022-09-20T18:42:04.030Z,97687.16
2022-09-20T18:44:34.116Z,97690.10
2022-09-20T18:47:03.965Z,97693.92
2022-09-20T18:49:32.663Z,97698.48
2022-09-20T18:52:01.135Z,97695.88
2022-09-20T18:54:33.426Z,97692.77
2022-09-20T18:57:02.038Z,97692.98
2022-09-20T18:59:30.229Z,97693.73
2022-09-20T19:02:01.578Z,97693.24
2022-09-20T19:04:29.437Z,97692.45
2022-09-20T19:07:16.127Z,97690.95
2022-09-20T19:09:57.107Z,97690.86
2022-09-20T19:13:04.739Z,97694.25
2022-09-20T19:15:44.835Z,97695.59
2022-09-20T19:18:37.098Z,97694.82
2022-09-20T19:21:10.613Z,97695.23
2022-09-20T19:23:52.604Z,97697.02
2022-09-20T19:26:28.680Z,97699.48
2022-09-20T19:29:02.284Z,97700.21
2022-09-20T19:31:32.811Z,97698.85
2022-09-20T19:34:04.945Z,97696.60
2022-09-20T19:36:49.899Z,97700.41
2022-09-20T19:39:36.906Z,97702.19
2022-09-20T19:42:15.849Z,97703.08
2022-09-20T19:44:52.753Z,97705.52
2022-09-20T19:47:47.399Z,97708.48
2022-09-20T19:50:28.216Z,97716.31
2022-09-20T19:52:56.635Z,97713.03
2022-09-20T19:55:25.314Z,97714.61
2022-09-20T19:57:53.707Z,97714.63
2022-09-20T20:00:22.237Z,97714.13
2022-09-20T20:02:50.494Z,97715.20
2022-09-20T20:05:25.120Z,97717.34
2022-09-20T20:08:11.967Z,97716.86
2022-09-20T20:10:58.624Z,97723.51
2022-09-20T20:14:07.236Z,97726.67
2022-09-20T20:17:17.136Z,97727.92
2022-09-20T20:20:00.915Z,97728.08
2022-09-20T20:22:52.980Z,97724.94
2022-09-20T20:25:42.836Z,97726.30
2022-09-20T20:28:10.843Z,97726.11
2022-09-20T20:30:38.881Z,97729.04
2022-09-20T20:33:07.362Z,97730.58
2022-09-20T20:35:37.484Z,97732.64
2022-09-20T20:38:12.656Z,97730.02
2022-09-20T20:40:40.826Z,97732.96
2022-09-20T20:43:09.557Z,97733.84
2022-09-20T20:45:38.829Z,97735.59
2022-09-20T20:48:06.817Z,97738.57
2022-09-20T20:50:35.605Z,97737.02
2022-09-20T20:53:03.675Z,97738.96
2022-09-20T20:55:31.705Z,97741.61
2022-09-20T20:57:59.727Z,97744.23
2022-09-20T21:00:28.591Z,97742.34
2022-09-20T21:03:01.058Z,97747.73
2022-09-20T21:05:29.281Z,97745.84
2022-09-20T21:07:58.659Z,97744.45
2022-09-20T21:10:26.503Z,97741.69
2022-09-20T21:12:54.914Z,97738.05
2022-09-20T21:15:22.813Z,97738.95
2022-09-20T21:17:53.807Z,97738.44
2022-09-20T21:20:25.861Z,97739.13
2022-09-20T21:22:56.065Z,97740.35
2022-09-20T21:25:23.981Z,97739.48
2022-09-20T21:27:53.769Z,97738.63
2022-09-20T21:30:21.603Z,97742.28
2022-09-20T21:32:49.551Z,97747.00
2022-09-20T21:35:17.617Z,97746.51
2022-09-20T21:37:45.574Z,97747.20
2022-09-20T21:40:13.660Z,97748.80
2022-09-20T21:42:41.644Z,97747.78
2022-09-20T21:45:11.217Z,97744.49
2022-09-20T21:47:39.241Z,97744.68
2022-09-20T21:50:08.033Z,97745.38
2022-09-20T21:52:35.941Z,97747.09
2022-09-20T21:55:07.168Z,97751.08
2022-09-20T21:57:35.164Z,97752.44
2022-09-20T22:00:04.001Z,97752.77
2022-09-20T22:02:40.701Z,97752.40
2022-09-20T22:05:09.100Z,97751.48
2022-09-20T22:07:37.026Z,97750.23
2022-09-20T22:10:05.545Z,97748.80
2022-09-20T22:12:33.505Z,97749.99
2022-09-20T22:15:01.557Z,97747.52
2022-09-20T22:17:29.886Z,97749.40
2022-09-20T22:19:58.686Z,97751.80
2022-09-20T22:22:27.852Z,97754.40
2022-09-20T22:24:56.247Z,97751.78
2022-09-20T22:27:24.269Z,97751.97
2022-09-20T22:29:52.685Z,97752.15
2022-09-20T22:32:20.864Z,97750.78
2022-09-20T22:34:48.796Z,97748.34
2022-09-20T22:37:17.754Z,97748.19
2022-09-20T22:39:46.815Z,97744.88
2022-09-20T22:42:14.814Z,97741.75
2022-09-20T22:44:42.715Z,97741.40
2022-09-20T22:47:10.767Z,97744.73
2022-09-20T22:49:39.088Z,97746.11
2022-09-20T22:52:07.655Z,97748.02
2022-09-20T22:54:35.711Z,97748.73
2022-09-20T22:57:04.234Z,97749.61
2022-09-20T22:59:32.647Z,97750.49
2022-09-20T23:02:00.717Z,97749.64
2022-09-20T23:04:28.999Z,97750.68
2022-09-20T23:06:57.012Z,97749.12
2022-09-20T23:09:28.353Z,97748.24
2022-09-20T23:11:56.661Z,97750.34
2022-09-20T23:14:25.088Z,97754.34
2022-09-20T23:16:53.516Z,97753.30
2022-09-20T23:19:21.651Z,97751.04
2022-09-20T23:21:49.979Z,97749.64
2022-09-20T23:24:18.230Z,97752.74
2022-09-20T23:26:46.300Z,97751.50
2022-09-20T23:29:16.391Z,97747.99
2022-09-20T23:31:47.462Z,97750.02
2022-09-20T23:34:17.698Z,97751.04
2022-09-20T23:36:46.889Z,97746.65
2022-09-20T23:39:16.200Z,97741.58
2022-09-20T23:41:49.870Z,97741.20
2022-09-20T23:44:19.734Z,97743.77
2022-09-20T23:46:47.859Z,97745.67
2022-09-20T23:49:15.814Z,97745.73
2022-09-20T23:51:43.682Z,97742.80
2022-09-20T23:54:11.778Z,97741.06
2022-09-20T23:56:40.878Z,97741.05
2022-09-20T23:59:08.733Z,97742.79
